Terminal Aerodrome Forecast
Issued by NWS

Home | Current Version | Previous Version | Graphics & Text | Print | Product List | Glossary On
Versions: 1 2 3 4 5 6 7 8 9 10 11 12 13 14 15 16 17 18 19
000
FTUS43 KMPX 211100
TAFRNH
TAF
KRNH 211140Z 2112/2212 15005KT P6SM OVC045
     FM211500 17012KT P6SM BKN050
     FM212200 17009KT P6SM SCT050 BKN150 PROB30 2206/2208 27020G30KT
      3SM TSRA BKN040CB OVC150
     FM220800 15006KT 5SM BR FEW010 BKN080=

USA.gov is the U.S. government's official web portal to all federal, state and local government web resources and services.